Tiempo atmosférico en la estación meteorológica de Pola de Somiedo, Asturias (668 m.)



Fecha
DESCASC
Temp. máxima en grados centígrados (hora)
DESCASC
Temp. mínima en grados centígrados (hora)
DESCASC
Temp. media en grados centígrados
DESCASC
Racha de viento máxima en m/sg (hora)
DESCASC
Velocidad máxima media en intervalos de 10 minutos(hora)
DESCASC
Precipitaciones diarias en mm
DESCASC
Precipitaciones de 00:00 a 06:00 en mm
DESCASC
Precipitaciones de 06:00 a 12:00 en mm
DESCASC
Precipitaciones de 12:00 a 18:00 en mm
DESCASC
Precipitaciones de 18:00 a 24:00 en mm
DESCASC
21-03-2020 17.3 (13:30) 5.5 (00:00) 11.4 6.67 (09:30) 3.33 (09:30) 25.6 0 0 23.4 2.2
02-03-2020 12.2 (02:00) 2.6 (00:00) 7.4 18.33 (03:50) 7.5 (13:30) 22.8 16 4.2 2.6 0
06-03-2020 6.5 (16:20) 2 (00:00) 4.3 14.72 (03:50) 6.67 (03:10) 15.4 6.2 7 2.2 0
05-03-2020 15.5 (00:00) 5 (00:00) 10.3 15.83 (02:50) 7.5 (03:00) 14 5.4 4.4 2.6 1.6
15-03-2020 15.3 (15:10) 0.5 (00:00) 7.9 10 (16:10) 6.11 (16:10) 13.8 0 0 4.8 9
16-03-2020 6.9 (15:20) 0.6 (00:00) 3.8 10 (09:40) 3.89 (14:00) 13.6 3.2 6.6 2.8 1
03-03-2020 15.6 (11:40) 5.5 (00:00) 10.6 17.22 (12:30) 7.22 (12:30) 8 4.8 1.6 0 1.6
30-03-2020 5 (00:00) 0.7 (00:00) 2.8 9.44 (10:50) 3.33 (10:50) 3 1.6 0.4 0.6 0.4
19-03-2020 21.8 (13:30) 5.3 (00:00) 13.5 6.67 (10:50) 3.33 (11:10) 2 0 0 1.6 0.4
07-03-2020 14.3 (16:20) 2 (00:00) 8.2 4.72 (15:30) 2.22 (15:30) 1.8 1.6 0.2 0 0
31-03-2020 7.7 (15:30) 0.2 (00:00) 3.9 7.5 (14:30) 4.17 (14:30) 0.6 0.6 0 0 0
29-03-2020 10.5 (15:40) 3 (00:00) 6.8 5.83 (22:10) 2.78 (17:30) 0.4 0 0 0 0.4
04-03-2020 18.3 (14:50) 8.5 (00:00) 13.4 10.56 (23:50) 4.44 (18:00) 0.2 0.2 0 0 0
22-03-2020 13.7 (14:10) 3.7 (05:40) 8.7 7.5 (14:30) 4.72 (14:20) 0 0 0 0 0
11-03-2020 21.6 (14:30) 3 (00:00) 12.3 7.22 (14:40) 3.61 (15:10) 0 0 0 0 0
28-03-2020 15.4 (13:30) -0.3 (00:00) 7.5 6.94 (14:50) 3.89 (14:00) 0 0 0 0 0
27-03-2020 13 (15:20) -1.6 (-00:0) 5.7 8.33 (16:50) 4.17 (16:10) 0 0 0 0 0
26-03-2020 12.3 (14:40) -2.1 (-00:0) 5.1 7.22 (11:40) 3.89 (15:50) 0 0 0 0 0
25-03-2020 17.4 (14:20) 3.6 (00:00) 10.5 7.22 (16:30) 4.17 (15:00) 0 0 0 0 0
24-03-2020 18.9 (14:10) 5.8 (00:00) 12.3 9.72 (16:10) 3.89 (16:20) 0 0 0 0 0
23-03-2020 14.4 (14:10) 4.1 (00:00) 9.2 7.78 (14:40) 4.17 (15:10) 0 0 0 0 0
13-03-2020 12 (15:50) 5.9 (07:40) 9 8.61 (16:30) 4.17 (16:30) 0 0 0 0 0
12-03-2020 11.6 (14:10) 6.9 (00:00) 9.3 6.67 (15:00) 2.78 (15:00) 0 0 0 0 0
08-03-2020 16 (14:30) 1 (00:00) 8.5 11.11 (14:20) 4.72 (14:50) 0 0 0 0 0
17-03-2020 13.6 (14:20) 0.4 (00:00) 7 5.83 (17:00) 2.78 (16:30) 0 0 0 0 0
18-03-2020 20.5 (14:40) 3.5 (00:00) 12 6.39 (15:30) 3.61 (15:30) 0 0 0 0 0
09-03-2020 14.3 (16:30) 2.6 (00:00) 8.5 7.78 (03:30) 3.89 (02:20) 0 0 0 0 0
20-03-2020 15.4 (16:20) 5.7 (00:00) 10.5 6.94 (14:40) 3.89 (14:40) 0 0 0 0 0
10-03-2020 23.2 (16:10) 4.8 (00:00) 14 8.89 (13:50) 3.33 (13:40) 0 0 0 0 0
14-03-2020 16.7 (15:10) -1.2 (-00:0) 7.8 8.06 (16:20) 3.89 (15:40) 0 0 0 0 0

Gráficas

Temp. máximas Temp. mínimas Temp. medias Precipitaciones Rachas de viento máximas Velocidades máximas media en intervalos de 10 minutos

Datos horarios

Fecha y hora oficial Temperatura (ºC) Velocidad del viento (km/h) Dirección del viento Racha (km/h) Dirección de racha Precipitación (mm) Presión (hPa) Tendencia (hPa) Humedad (%)
2020-03-31 23:00:00 4.8 0 Calma 8 Norte 0 -- -- 90
2020-03-31 22:00:00 4.9 3 Noroeste 11 Noroeste 0 -- -- 88
2020-03-31 21:00:00 5.2 3 Norte 10 Norte 0 -- -- 87
2020-03-31 20:00:00 5.6 4 Noroeste 12 Norte 0 -- -- 84
2020-03-31 19:00:00 6.3 5 Norte 17 Norte 0 -- -- 79
2020-03-31 18:00:00 7 5 Norte 15 Norte 0 -- -- 74
2020-03-31 17:00:00 7.1 9 Norte 19 Norte 0 -- -- 74
2020-03-31 16:00:00 7.6 9 Norte 21 Norte 0 -- -- 70
2020-03-31 15:00:00 7.2 12 Norte 27 Norte 0 -- -- 69
2020-03-31 14:00:00 7.3 13 Norte 21 Norte 0 -- -- 73
2020-03-31 13:00:00 6 9 Norte 20 Norte 0 -- -- 71
2020-03-31 12:00:00 3.9 8 Norte 17 Norte 0 -- -- 74
2020-03-31 11:00:00 2.7 6 Nordeste 12 Nordeste 0 -- -- 76
2020-03-31 10:00:00 1 2 Noroeste 6 Nordeste 0 -- -- 91
2020-03-31 09:00:00 0.4 3 Norte 8 Oeste 0 -- -- 94
2020-03-31 08:00:00 0.2 4 Noroeste 9 Norte 0 -- -- 94
2020-03-31 07:00:00 0.4 2 Norte 8 Norte 0 -- -- 93
2020-03-31 06:00:00 0.7 3 Norte 8 Norte 0.2 -- -- 90
2020-03-31 05:00:00 0.9 3 Noroeste 9 Noroeste 0 -- -- 88
2020-03-31 04:00:00 0.8 4 Norte 8 Noroeste 0 -- -- 89
2020-03-31 03:00:00 0.6 3 Norte 8 Sudeste 0 -- -- 95
2020-03-31 02:00:00 0.5 2 Norte 8 Norte 0.4 -- -- 94
2020-03-31 01:00:00 1.5 6 Norte 21 Noroeste 0 -- -- 81
2020-03-31 00:00:00 1.6 3 Noroeste 12 Noroeste 0 -- -- 81
2020-03-30 23:00:00 1.1 6 Norte 19 Norte 0 -- -- 83
2020-03-30 22:00:00 1 3 Norte 10 Norte 0 -- -- 87
2020-03-30 21:00:00 0.9 6 Noroeste 12 Noroeste 0 -- -- 87
2020-03-30 20:00:00 1.1 4 Norte 10 Norte 0 -- -- 84
2020-03-30 19:00:00 0.7 9 Norte 19 Noroeste 0.4 -- -- 85
2020-03-30 18:00:00 2.5 5 Norte 22 Noroeste 0 -- -- 75
2020-03-30 17:00:00 1.8 7 Norte 17 Norte 0.2 -- -- 81
2020-03-30 16:00:00 2.6 7 Norte 21 Noroeste 0 -- -- 75
2020-03-30 15:00:00 2.1 6 Norte 23 Noroeste 0 -- -- 77
2020-03-30 14:00:00 1.9 10 Norte 22 Noroeste 0.2 -- -- 77
2020-03-30 13:00:00 1.9 5 Noroeste 21 Nordeste 0.2 -- -- 76
2020-03-30 12:00:00 2.1 7 Norte 23 Noroeste 0 -- -- 78
2020-03-30 11:00:00 0.9 8 Norte 34 Noroeste 0.2 -- -- 88
2020-03-30 10:00:00 2.8 4 Noroeste 18 Noroeste 0.2 -- -- 72
2020-03-30 09:00:00 2.6 6 Noroeste 22 Noroeste 0 -- -- 76
2020-03-30 08:00:00 2.7 11 Noroeste 28 Noroeste 0 -- -- 77
2020-03-30 07:00:00 2.2 2 Sur 7 Sudoeste 0 -- -- 92
2020-03-30 06:00:00 2.6 4 Noroeste 23 Noroeste 0 -- -- 78
2020-03-30 05:00:00 2.9 9 Norte 22 Noroeste 0.2 -- -- 85
2020-03-30 04:00:00 3.2 10 Noroeste 23 Noroeste 0.8 -- -- 87
2020-03-30 03:00:00 3.9 8 Noroeste 19 Norte 0.2 -- -- 88
2020-03-30 02:00:00 4.2 5 Norte 23 Norte 0.2 -- -- 91
2020-03-30 01:00:00 4.7 5 Norte 19 Norte 0.2 -- -- 90
2020-03-30 00:00:00 5 7 Norte 15 Norte 0.2 -- -- 92
2020-03-29 23:00:00 5.7 4 Noroeste 21 Norte 0.2 -- -- 92
2020-03-29 22:00:00 6.7 9 Norte 18 Norte 0 -- -- 88
2020-03-29 21:00:00 7.7 5 Norte 21 Norte 0 -- -- 79
2020-03-29 20:00:00 8 7 Norte 19 Noroeste 0 -- -- 73
2020-03-29 19:00:00 8.5 9 Norte 18 Norte 0 -- -- 75
2020-03-29 18:00:00 8.8 6 Norte 21 Norte 0 -- -- 77
2020-03-29 17:00:00 10.1 7 Norte 15 Norte 0 -- -- 75
2020-03-29 16:00:00 10.4 7 Norte 16 Nordeste 0 -- -- 69
2020-03-29 15:00:00 10 6 Norte 16 Norte 0 -- -- 74
2020-03-29 14:00:00 9.3 6 Norte 12 Norte 0 -- -- 77
2020-03-29 13:00:00 8.5 5 Norte 9 Norte 0 -- -- 78
2020-03-29 12:00:00 7.4 0 Calma 4 Norte 0 -- -- 80
2020-03-29 11:00:00 6 3 Sudoeste 8 Sur 0 -- -- 85
2020-03-29 10:00:00 4.9 4 Sur 9 Sudoeste 0 -- -- 87
2020-03-29 09:00:00 4.4 5 Sur 10 Sur 0 -- -- 88
2020-03-29 08:00:00 4.6 4 Sur 10 Sur 0 -- -- 88
2020-03-29 07:00:00 4.8 4 Sur 10 Sur 0 -- -- 88
2020-03-29 06:00:00 5.2 4 Sur 10 Sur 0 -- -- 88
2020-03-29 05:00:00 5.3 4 Sur 8 Sur 0 -- -- 90
2020-03-29 03:00:00 3.7 0 Calma 2 Sur 0 -- -- 99
2020-03-29 01:00:00 3 0 Calma 2 Sur 0 -- -- 97
2020-03-29 00:00:00 3.7 0 Calma 4 Sur 0 -- -- 96
2020-03-28 23:00:00 4.7 0 Calma 2 Sudoeste 0 -- -- 93
2020-03-28 22:00:00 6.1 0 Calma 3 Sur 0 -- -- 89
2020-03-28 21:00:00 8 2 Sur 12 Noroeste 0 -- -- 83
2020-03-28 20:00:00 9.3 5 Norte 20 Nordeste 0 -- -- 79
2020-03-28 19:00:00 10.8 5 Norte 15 Norte 0 -- -- 73
2020-03-28 18:00:00 12.3 8 Norte 23 Norte 0 -- -- 66
2020-03-28 17:00:00 14 11 Norte 21 Norte 0 -- -- 58
2020-03-28 16:00:00 14.5 11 Norte 22 Norte 0 -- -- 50
2020-03-28 15:00:00 15.1 13 Norte 25 Norte 0 -- -- 45
2020-03-28 14:00:00 15.3 14 Norte 24 Norte 0 -- -- 48
2020-03-28 13:00:00 15.1 11 Norte 22 Norte 0 -- -- 47
2020-03-28 12:00:00 14.1 9 Norte 18 Nordeste 0 -- -- 41
2020-03-28 11:00:00 8.8 0 Calma 3 Norte 0 -- -- 52
2020-03-28 10:00:00 1.3 0 Calma 0 Calma 0 -- -- 96
2020-03-28 09:00:00 0.6 0 Calma 4 Sudoeste 0 -- -- 94
2020-03-28 08:00:00 -0.1 3 Sur 5 Sudoeste 0 -- -- 93
2020-03-28 07:00:00 -0.3 3 Sur 5 Sur 0 -- -- 94
2020-03-28 06:00:00 -0.2 3 Sur 5 Sudoeste 0 -- -- 93
2020-03-28 05:00:00 -0.2 3 Sur 5 Sur 0 -- -- 93
2020-03-28 04:00:00 0 2 Sur 6 Sur 0 -- -- 93
2020-03-28 03:00:00 0.2 3 Sur 5 Sur 0 -- -- 93
2020-03-28 02:00:00 0.5 2 Sur 4 Sur 0 -- -- 95
2020-03-28 01:00:00 1 2 Sur 4 Sur 0 -- -- 95
2020-03-28 00:00:00 1.5 2 Sur 4 Oeste 0 -- -- 94
2020-03-27 23:00:00 2.1 2 Sur 4 Sudoeste 0 -- -- 94
2020-03-27 22:00:00 3 0 Calma 3 Sudoeste 0 -- -- 91
2020-03-27 21:00:00 4.4 2 Sudoeste 5 Oeste 0 -- -- 87
2020-03-27 20:00:00 6.2 2 Sur 11 Noroeste 0 -- -- 80
2020-03-27 19:00:00 8.2 4 Noroeste 16 Noroeste 0 -- -- 72
2020-03-27 18:00:00 9.4 9 Norte 23 Norte 0 -- -- 67
2020-03-27 17:00:00 11.8 14 Norte 30 Norte 0 -- -- 63
2020-03-27 16:00:00 12.8 14 Norte 29 Norte 0 -- -- 55
2020-03-27 15:00:00 12.6 13 Norte 26 Norte 0 -- -- 56
2020-03-27 14:00:00 11.7 13 Norte 24 Norte 0 -- -- 58
2020-03-27 13:00:00 11 12 Norte 26 Nordeste 0 -- -- 56
2020-03-27 12:00:00 8.5 10 Norte 19 Norte 0 -- -- 54
2020-03-27 11:00:00 6.1 3 Sudeste 8 Sudeste 0 -- -- 66
2020-03-27 10:00:00 -0.9 2 Norte 4 Norte 0 -- -- 99
2020-03-27 09:00:00 -1.4 0 Calma 2 Sur 0 -- -- 99
2020-03-27 08:00:00 -1.6 0 Calma 2 Sudeste 0 -- -- 98
2020-03-27 07:00:00 -1.4 2 Sur 4 Sudoeste 0 -- -- 98
2020-03-27 06:00:00 -1.1 2 Sudoeste 3 Sudoeste 0 -- -- 97
2020-03-27 05:00:00 -0.6 2 Sur 2 Sur 0 -- -- 97
2020-03-27 04:00:00 0 3 Sur 4 Sur 0 -- -- 96
2020-03-27 03:00:00 0.9 2 Norte 4 Noroeste 0 -- -- 95
2020-03-27 02:00:00 1.7 0 Calma 3 Sudoeste 0 -- -- 94
2020-03-27 01:00:00 2.3 0 Calma 3 Sudoeste 0 -- -- 92
2020-03-27 00:00:00 2.7 0 Calma 3 Sur 0 -- -- 91
2020-03-26 23:00:00 2.7 0 Calma 4 Sudoeste 0 -- -- 87
2020-03-26 22:00:00 4 0 Calma 10 Norte 0 -- -- 81
2020-03-26 21:00:00 5.3 5 Norte 18 Norte 0 -- -- 74
2020-03-26 20:00:00 6.1 5 Norte 22 Norte 0 -- -- 74
2020-03-26 19:00:00 7.3 11 Norte 22 Norte 0 -- -- 70
2020-03-26 18:00:00 8.5 11 Norte 22 Norte 0 -- -- 66
2020-03-26 17:00:00 11.2 12 Norte 26 Norte 0 -- -- 60
2020-03-26 16:00:00 11.9 13 Norte 25 Norte 0 -- -- 57
2020-03-26 15:00:00 12.3 12 Norte 24 Norte 0 -- -- 58
2020-03-26 14:00:00 12.1 11 Norte 22 Norte 0 -- -- 58
2020-03-26 13:00:00 11 12 Norte 25 Norte 0 -- -- 59
2020-03-26 12:00:00 9.1 12 Nordeste 26 Nordeste 0 -- -- 56
2020-03-26 11:00:00 6.1 6 Norte 13 Nordeste 0 -- -- 70
2020-03-26 10:00:00 -1.8 0 Calma 5 Sur 0 -- -- 95
2020-03-26 09:00:00 -2.1 0 Calma 4 Sur 0 -- -- 95
2020-03-26 08:00:00 -2 2 Sudoeste 3 Sudoeste 0 -- -- 93
2020-03-26 07:00:00 -1.6 0 Calma 4 Sudoeste 0 -- -- 95
2020-03-26 06:00:00 -1.1 0 Calma 4 Sudoeste 0 -- -- 96
2020-03-26 05:00:00 -0.4 0 Calma 3 Sudoeste 0 -- -- 97
2020-03-26 04:00:00 0.5 2 Sur 3 Sur 0 -- -- 97
2020-03-26 03:00:00 1.3 0 Calma 2 Sudoeste 0 -- -- 97
2020-03-26 02:00:00 2.1 0 Calma 2 Sudoeste 0 -- -- 97
2020-03-26 01:00:00 2.9 0 Calma 3 Sudoeste 0 -- -- 97
2020-03-26 00:00:00 3.6 0 Calma 3 Sudoeste 0 -- -- 96
2020-03-25 23:00:00 4.4 0 Calma 3 Sudoeste 0 -- -- 93
2020-03-25 22:00:00 5.7 0 Calma 3 Sur 0 -- -- 91
2020-03-25 21:00:00 7.4 0 Calma 5 Sur 0 -- -- 85
2020-03-25 20:00:00 9.5 2 Sudoeste 11 Norte 0 -- -- 79
2020-03-25 19:00:00 11.6 4 Noroeste 20 Norte 0 -- -- 71
2020-03-25 18:00:00 12.9 10 Norte 23 Norte 0 -- -- 59
2020-03-25 17:00:00 16.1 10 Norte 26 Norte 0 -- -- 50
2020-03-25 16:00:00 16.9 12 Norte 23 Norte 0 -- -- 40
2020-03-25 15:00:00 17.1 15 Norte 26 Norte 0 -- -- 45
2020-03-25 14:00:00 17.3 11 Norte 21 Noroeste 0 -- -- 51
2020-03-25 13:00:00 16.8 10 Norte 19 Norte 0 -- -- 55
2020-03-25 12:00:00 15.8 9 Norte 16 Norte 0 -- -- 62
2020-03-25 11:00:00 12.3 5 Norte 13 Norte 0 -- -- 89
2020-03-25 10:00:00 4.7 0 Calma 3 Sudeste 0 -- -- 100
2020-03-25 09:00:00 4 3 Sur 5 Sudoeste 0 -- -- 100
2020-03-25 08:00:00 3.7 3 Sur 4 Este 0 -- -- 100
2020-03-25 07:00:00 3.7 2 Sur 4 Sur 0 -- -- 100
2020-03-25 06:00:00 3.9 2 Sur 4 Sur 0 -- -- 100
2020-03-25 05:00:00 4.2 0 Calma 3 Sur 0 -- -- 100
2020-03-25 04:00:00 4.6 0 Calma 4 Sur 0 -- -- 99
2020-03-25 03:00:00 5.2 0 Calma 4 Sudoeste 0 -- -- 99
2020-03-25 02:00:00 5.3 0 Calma 3 Sur 0 -- -- 98
2020-03-25 01:00:00 5.8 0 Calma 3 Sudoeste 0 -- -- 97
2020-03-25 00:00:00 6.7 0 Calma 3 Sudeste 0 -- -- 96
2020-03-24 23:00:00 7.3 0 Calma 5 Sudoeste 0 -- -- 94
2020-03-24 22:00:00 7.9 3 Sur 5 Sudoeste 0 -- -- 93
2020-03-24 21:00:00 9.4 0 Calma 4 Oeste 0 -- -- 88
2020-03-24 20:00:00 11.4 3 Sur 6 Noroeste 0 -- -- 82
2020-03-24 19:00:00 13.7 3 Noroeste 13 Norte 0 -- -- 73
2020-03-24 18:00:00 14.9 8 Norte 25 Norte 0 -- -- 68
2020-03-24 17:00:00 15.4 11 Norte 35 Norte 0 -- -- 67
2020-03-24 16:00:00 17.9 13 Norte 25 Norte 0 -- -- 62
2020-03-24 15:00:00 18.6 4 Nordeste 13 Sur 0 -- -- 51
2020-03-24 14:00:00 18.7 7 Sur 15 Sur 0 -- -- 43
2020-03-24 13:00:00 17.5 9 Sur 24 Sudoeste 0 -- -- 49
2020-03-24 12:00:00 16 12 Sur 26 Sudoeste 0 -- -- 51
2020-03-24 11:00:00 11.1 4 Norte 8 Noroeste 0 -- -- 89
2020-03-24 10:00:00 5.9 2 Sur 4 Sur 0 -- -- 100
2020-03-24 09:00:00 6 2 Sur 4 Sur 0 -- -- 100
2020-03-24 08:00:00 6.3 3 Sudoeste 6 Oeste 0 -- -- 100
2020-03-24 07:00:00 6.1 0 Calma 5 Sur 0 -- -- 100
2020-03-24 06:00:00 6.3 0 Calma 3 Sudeste 0 -- -- 98
2020-03-24 05:00:00 7.5 0 Calma 4 Sur 0 -- -- 99
2020-03-24 04:00:00 7.9 0 Calma 2 Sur 0 -- -- 99
2020-03-24 03:00:00 8 0 Calma 2 Nordeste 0 -- -- 98
2020-03-24 02:00:00 8.2 0 Calma 3 Norte 0 -- -- 97
2020-03-24 01:00:00 8.5 0 Calma 2 Noroeste 0 -- -- 96
2020-03-24 00:00:00 8.8 0 Calma 10 Noroeste 0 -- -- 95
2020-03-23 23:00:00 8.8 3 Noroeste 12 Noroeste 0 -- -- 94
2020-03-23 22:00:00 9.1 4 Norte 9 Norte 0 -- -- 93
2020-03-23 21:00:00 9.4 4 Noroeste 9 Norte 0 -- -- 90
2020-03-23 20:00:00 9.5 5 Norte 11 Norte 0 -- -- 90
2020-03-23 19:00:00 9.7 5 Norte 10 Norte 0 -- -- 90
2020-03-23 18:00:00 10.1 4 Norte 13 Norte 0 -- -- 87
2020-03-23 17:00:00 10.8 9 Norte 17 Norte 0 -- -- 83
2020-03-23 16:00:00 11.7 9 Norte 28 Nordeste 0 -- -- 79
2020-03-23 15:00:00 13.3 13 Norte 28 Norte 0 -- -- 73
2020-03-23 14:00:00 14.3 13 Norte 23 Norte 0 -- -- 70
2020-03-23 13:00:00 13.7 10 Norte 18 Norte 0 -- -- 69
2020-03-23 12:00:00 12 6 Norte 12 Norte 0 -- -- 67
2020-03-23 11:00:00 10.3 3 Sudeste 7 Sur 0 -- -- 69
2020-03-23 10:00:00 8.1 5 Sudoeste 8 Sudoeste 0 -- -- 79
2020-03-23 09:00:00 6.5 2 Sur 5 Sudeste 0 -- -- 88
2020-03-23 08:00:00 5.5 0 Calma 2 Norte 0 -- -- 96
2020-03-23 07:00:00 5.1 0 Calma 3 Sur 0 -- -- 97
2020-03-23 06:00:00 4.4 2 Sur 4 Sur 0 -- -- 99
2020-03-23 05:00:00 4.2 2 Sur 4 Sudoeste 0 -- -- 97
2020-03-23 04:00:00 5.4 0 Calma 4 Sur 0 -- -- 94
2020-03-23 03:00:00 6.9 2 Sudoeste 9 Sur 0 -- -- 88
2020-03-23 02:00:00 7.5 3 Sur 5 Sur 0 -- -- 97
2020-03-23 01:00:00 7.6 0 Calma 2 Oeste 0 -- -- 98
2020-03-23 00:00:00 7.4 0 Calma 3 Norte 0 -- -- 99
2020-03-22 23:00:00 7.1 0 Calma 3 Sur 0 -- -- 98
2020-03-22 22:00:00 7.4 0 Calma 5 Sur 0 -- -- 95
2020-03-22 21:00:00 8.2 0 Calma 7 Norte 0 -- -- 93
2020-03-22 20:00:00 9.7 5 Noroeste 15 Norte 0 -- -- 88
2020-03-22 19:00:00 10.9 8 Norte 17 Norte 0 -- -- 82
2020-03-22 18:00:00 11.8 10 Norte 23 Norte 0 -- -- 81
2020-03-22 17:00:00 12.7 9 Norte 20 Norte 0 -- -- 77
2020-03-22 16:00:00 12.8 7 Norte 17 Norte 0 -- -- 81
2020-03-22 15:00:00 12.1 9 Norte 27 Norte 0 -- -- 87
2020-03-22 14:00:00 13.6 13 Norte 27 Norte 0 -- -- 83
2020-03-22 13:00:00 12.6 15 Norte 27 Nordeste 0 -- -- 82
2020-03-22 12:00:00 11.4 7 Norte 16 Norte 0 -- -- 86
2020-03-22 11:00:00 9.3 5 Norte 11 Norte 0 -- -- 97
2020-03-22 10:00:00 7 0 Calma 3 Sur 0 -- -- 100
2020-03-22 09:00:00 5.8 0 Calma 4 Sur 0 -- -- 100
2020-03-22 08:00:00 4.9 0 Calma 5 Sudoeste 0 -- -- 100
2020-03-22 07:00:00 3.9 0 Calma 4 Norte 0 -- -- 100
2020-03-22 06:00:00 3.8 0 Calma 5 Sur 0 -- -- 100
2020-03-22 05:00:00 4.3 0 Calma 4 Sudoeste 0 -- -- 100
2020-03-22 04:00:00 4.4 0 Calma 4 Sur 0 -- -- 100
2020-03-22 03:00:00 4.1 2 Sur 4 Sur 0 -- -- 100
2020-03-22 02:00:00 4.6 0 Calma 4 Sur 0 -- -- 100
2020-03-22 01:00:00 5.2 0 Calma 5 Sur 0 -- -- 100
2020-03-22 00:00:00 5.8 0 Calma 4 Sudoeste 0.2 -- -- 100
2020-03-21 23:00:00 5.5 0 Calma 5 Sur 0 -- -- 100
2020-03-21 22:00:00 5.8 2 Sur 5 Sur 0 -- -- 100
2020-03-21 21:00:00 6.6 0 Calma 4 Sudoeste 0 -- -- 99
2020-03-21 20:00:00 7.4 0 Calma 5 Sudoeste 0 -- -- 98
2020-03-21 19:00:00 8.2 3 Norte 21 Sudoeste 2 -- -- 97
2020-03-21 18:00:00 8.2 3 Noroeste 15 Este 20.8 -- -- 93
2020-03-21 17:00:00 11.3 9 Sudeste 19 Sudeste 1.2 -- -- 85
2020-03-21 16:00:00 13.6 4 Norte 9 Noroeste 0.2 -- -- 82
2020-03-21 15:00:00 13.7 2 Nordeste 13 Norte 1.2 -- -- 83
2020-03-21 14:00:00 16.5 7 Norte 15 Norte 0 -- -- 63
2020-03-21 13:00:00 16.9 3 Norte 10 Noroeste 0 -- -- 55
2020-03-21 12:00:00 16.1 6 Norte 14 Norte 0 -- -- 60
2020-03-21 11:00:00 13.9 8 Norte 16 Norte 0 -- -- 69
2020-03-21 10:00:00 11.9 5 Sudoeste 24 Sudoeste 0 -- -- 74
2020-03-21 09:00:00 8.8 4 Sur 17 Sudoeste 0 -- -- 92
2020-03-21 08:00:00 7 2 Sur 4 Sur 0 -- -- 99
2020-03-21 07:00:00 8 0 Calma 8 Sur 0 -- -- 99
2020-03-21 06:00:00 8.2 2 Sudoeste 5 Sur 0 -- -- 99
2020-03-21 05:00:00 8.1 2 Noroeste 4 Sudoeste 0 -- -- 99
2020-03-21 04:00:00 8.3 0 Calma 4 Sudeste 0 -- -- 98
2020-03-21 03:00:00 8.4 0 Calma 4 Este 0 -- -- 98
2020-03-21 02:00:00 8 0 Calma 5 Sudoeste 0 -- -- 98
2020-03-21 01:00:00 8.3 0 Calma 3 Oeste 0 -- -- 96
2020-03-21 00:00:00 8.5 0 Calma 6 Sudoeste 0 -- -- 95
2020-03-20 23:00:00 8.7 0 Calma 5 Sur 0 -- -- 91
2020-03-20 22:00:00 10.1 0 Calma 5 Nordeste 0 -- -- 86
2020-03-20 21:00:00 10.6 3 Norte 5 Norte 0 -- -- 84
2020-03-20 20:00:00 12.2 0 Calma 15 Sudoeste 0 -- -- 73
2020-03-20 19:00:00 13.9 6 Sur 16 Sur 0 -- -- 64
2020-03-20 18:00:00 14.6 6 Sur 20 Sur 0 -- -- 61
2020-03-20 17:00:00 15.2 9 Sur 23 Sur 0 -- -- 60
2020-03-20 16:00:00 15.1 12 Sur 24 Sudoeste 0 -- -- 61
2020-03-20 15:00:00 15 10 Sur 25 Sur 0 -- -- 61
2020-03-20 14:00:00 14.5 9 Sur 24 Sur 0 -- -- 64
2020-03-20 13:00:00 14 10 Sur 23 Sur 0 -- -- 66
2020-03-20 12:00:00 13.9 11 Sur 23 Sur 0 -- -- 66
2020-03-20 11:00:00 12.9 6 Sur 16 Sur 0 -- -- 70
2020-03-20 10:00:00 12 6 Sur 22 Sur 0 -- -- 73
2020-03-20 09:00:00 8.2 3 Norte 17 Oeste 0 -- -- 100
2020-03-20 08:00:00 7.5 0 Calma 12 Sur 0 -- -- 99
2020-03-20 07:00:00 8 7 Sur 23 Este 0 -- -- 100
2020-03-20 06:00:00 6.1 0 Calma 7 Oeste 0 -- -- 100
2020-03-20 05:00:00 5.7 3 Noroeste 8 Sur 0 -- -- 100
2020-03-20 04:00:00 5.8 4 Sudeste 8 Sudeste 0 -- -- 100
2020-03-20 03:00:00 5.9 3 Nordeste 8 Sudoeste 0 -- -- 100
2020-03-20 02:00:00 6.2 2 Sur 4 Sudoeste 0 -- -- 100
2020-03-20 01:00:00 6.8 2 Sudoeste 5 Sudoeste 0 -- -- 100
2020-03-20 00:00:00 7.3 0 Calma 3 Sur 0 -- -- 99
2020-03-19 23:00:00 7.7 0 Calma 5 Sudoeste 0 -- -- 99
2020-03-19 22:00:00 8.5 2 Sur 3 Sudeste 0 -- -- 98
2020-03-19 21:00:00 9.4 2 Sur 4 Sur 0 -- -- 97
2020-03-19 20:00:00 10.9 0 Calma 3 Sudoeste 0 -- -- 96
2020-03-19 19:00:00 11.6 3 Sudeste 5 Sudeste 0.4 -- -- 97
2020-03-19 18:00:00 12.2 3 Sur 6 Sudoeste 0.2 -- -- 94
2020-03-19 17:00:00 13 2 Norte 17 Sur 1.4 -- -- 89
2020-03-19 16:00:00 16.8 5 Norte 20 Norte 0 -- -- 63
2020-03-19 15:00:00 19.1 10 Norte 22 Norte 0 -- -- 53
2020-03-19 14:00:00 21.3 2 Este 9 Sudoeste 0 -- -- 39
2020-03-19 13:00:00 20.9 7 Sudoeste 19 Sur 0 -- -- 44
2020-03-19 12:00:00 19.6 9 Sur 23 Sur 0 -- -- 46
2020-03-19 11:00:00 17.3 11 Sur 24 Sur 0 -- -- 51
2020-03-19 10:00:00 10.7 2 Sudoeste 5 Sudoeste 0 -- -- 94
2020-03-19 09:00:00 7.5 2 Sur 6 Sur 0 -- -- 98
2020-03-19 08:00:00 5.6 3 Sur 6 Sur 0 -- -- 99
2020-03-19 07:00:00 5.4 2 Sur 5 Sur 0 -- -- 98
2020-03-19 06:00:00 5.5 2 Sur 5 Sur 0 -- -- 99
2020-03-19 05:00:00 5.6 2 Sur 5 Sur 0 -- -- 100
2020-03-19 04:00:00 5.7 2 Sur 4 Sudoeste 0 -- -- 99
2020-03-19 03:00:00 6 2 Sudeste 5 Sudoeste 0 -- -- 98
2020-03-19 02:00:00 6.2 2 Sur 5 Sudoeste 0 -- -- 99
2020-03-19 01:00:00 6.5 0 Calma 4 Sudeste 0 -- -- 98
2020-03-19 00:00:00 6.9 0 Calma 4 Sur 0 -- -- 96
2020-03-18 23:00:00 7.6 0 Calma 4 Sur 0 -- -- 94
2020-03-18 22:00:00 8.6 2 Sur 4 Sur 0 -- -- 92
2020-03-18 21:00:00 10.2 2 Sur 4 Sudoeste 0 -- -- 87
2020-03-18 20:00:00 12.5 0 Calma 6 Sur 0 -- -- 81
2020-03-18 19:00:00 15.3 4 Sudoeste 14 Noroeste 0 -- -- 71
2020-03-18 18:00:00 16.5 7 Norte 17 Norte 0 -- -- 65
2020-03-18 17:00:00 18.6 8 Norte 20 Norte 0 -- -- 58
2020-03-18 16:00:00 19.9 11 Norte 23 Norte 0 -- -- 56
2020-03-18 15:00:00 20.5 10 Norte 19 Nordeste 0 -- -- 50
2020-03-18 14:00:00 19.9 7 Norte 15 Norte 0 -- -- 48
2020-03-18 13:00:00 18.7 7 Norte 15 Norte 0 -- -- 52
2020-03-18 12:00:00 16.1 3 Nordeste 5 Norte 0 -- -- 57
2020-03-18 11:00:00 11.4 0 Calma 3 Norte 0 -- -- 84
2020-03-18 10:00:00 6.2 0 Calma 6 Sur 0 -- -- 100
2020-03-18 09:00:00 4.3 0 Calma 4 Sudoeste 0 -- -- 100
2020-03-18 08:00:00 3.6 2 Sudoeste 5 Sur 0 -- -- 100
2020-03-18 07:00:00 3.6 0 Calma 4 Sudoeste 0 -- -- 100
2020-03-18 06:00:00 3.9 2 Sur 6 Sur 0 -- -- 100
2020-03-18 05:00:00 4.2 3 Sudoeste 5 Sudoeste 0 -- -- 100
2020-03-18 04:00:00 4.3 3 Sur 8 Sur 0 -- -- 100
2020-03-18 03:00:00 4.7 3 Sur 6 Sur 0 -- -- 100
2020-03-18 02:00:00 4.5 3 Sur 7 Sudeste 0 -- -- 100
2020-03-18 01:00:00 3.9 3 Sur 8 Sudeste 0 -- -- 100
2020-03-18 00:00:00 4.3 2 Sur 6 Sudeste 0 -- -- 99
2020-03-17 23:00:00 4.9 0 Calma 5 Oeste 0 -- -- 97
2020-03-17 22:00:00 5.8 3 Sur 4 Sudeste 0 -- -- 95
2020-03-17 21:00:00 7.1 0 Calma 4 Sudoeste 0 -- -- 92
2020-03-17 20:00:00 9.3 2 Sudoeste 14 Noroeste 0 -- -- 88
2020-03-17 19:00:00 10.7 3 Norte 11 Norte 0 -- -- 85
2020-03-17 18:00:00 11.2 3 Noroeste 19 Noroeste 0 -- -- 82
2020-03-17 17:00:00 11.5 10 Norte 21 Norte 0 -- -- 79
2020-03-17 16:00:00 13.3 7 Norte 17 Norte 0 -- -- 73
2020-03-17 15:00:00 13.1 3 Norte 14 Norte 0 -- -- 67
2020-03-17 14:00:00 13 8 Norte 18 Norte 0 -- -- 70
2020-03-17 13:00:00 11.9 8 Norte 18 Norte 0 -- -- 73
2020-03-17 12:00:00 9.5 3 Sudoeste 6 Sudeste 0 -- -- 73
2020-03-17 11:00:00 7.4 4 Sudeste 5 Este 0 -- -- 81
2020-03-17 10:00:00 3.9 3 Sudeste 9 Sur 0 -- -- 94
2020-03-17 09:00:00 3.4 0 Calma 4 Sur 0 -- -- 100
2020-03-17 08:00:00 2.3 0 Calma 4 Sudoeste 0 -- -- 100
2020-03-17 07:00:00 1.6 0 Calma 4 Noroeste 0 -- -- 100
2020-03-17 06:00:00 1 0 Calma 7 Sudoeste 0 -- -- 100
2020-03-17 05:00:00 0.4 0 Calma 5 Sur 0 -- -- 100
2020-03-17 04:00:00 1.1 0 Calma 5 Sudoeste 0 -- -- 99
2020-03-17 03:00:00 1.8 2 Sudoeste 5 Este 0 -- -- 99
2020-03-17 02:00:00 2.5 3 Sur 6 Sudoeste 0 -- -- 99
2020-03-17 01:00:00 2.3 3 Sur 5 Sudoeste 0 -- -- 98
2020-03-17 00:00:00 3.3 2 Sudoeste 5 Sudoeste 0 -- -- 96
2020-03-16 23:00:00 3.9 3 Oeste 8 Nordeste 0 -- -- 97
2020-03-16 22:00:00 3.9 4 Sudoeste 10 Noroeste 0.2 -- -- 97
2020-03-16 21:00:00 3.9 4 Norte 14 Norte 0.4 -- -- 94
2020-03-16 20:00:00 5 3 Nordeste 16 Norte 0 -- -- 82
2020-03-16 19:00:00 5 9 Noroeste 22 Norte 0.4 -- -- 83
2020-03-16 18:00:00 5.7 8 Norte 19 Noroeste 0.2 -- -- 82
2020-03-16 17:00:00 5.7 6 Norte 27 Noroeste 0.6 -- -- 88
2020-03-16 16:00:00 6.6 6 Noroeste 26 Noroeste 0.6 -- -- 87
2020-03-16 15:00:00 6.2 8 Noroeste 34 Norte 0.6 -- -- 82
2020-03-16 14:00:00 6.3 14 Norte 34 Norte 0.4 -- -- 81
2020-03-16 13:00:00 5.1 10 Norte 25 Norte 0.4 -- -- 88
2020-03-16 12:00:00 5 10 Norte 27 Noroeste 0.8 -- -- 89
2020-03-16 11:00:00 4.8 12 Norte 25 Noroeste 1.6 -- -- 90
2020-03-16 10:00:00 3.6 8 Norte 36 Norte 1 -- -- 91
2020-03-16 09:00:00 3.1 13 Norte 31 Noroeste 1.8 -- -- 93
2020-03-16 08:00:00 3.4 11 Norte 31 Norte 0.4 -- -- 90
2020-03-16 07:00:00 2.6 7 Norte 31 Nordeste 1 -- -- 93
2020-03-16 06:00:00 2.9 6 Norte 23 Norte 0.4 -- -- 92
2020-03-16 05:00:00 2.6 6 Norte 26 Norte 0.8 -- -- 94
2020-03-16 04:00:00 2.5 6 Norte 18 Norte 0.4 -- -- 95
2020-03-16 03:00:00 1.8 7 Norte 19 Noroeste 0.2 -- -- 100
2020-03-16 02:00:00 0.9 0 Calma 5 Sudeste 0.6 -- -- 100
2020-03-16 01:00:00 0.7 3 Sur 6 Sudoeste 0.8 -- -- 100
2020-03-16 00:00:00 0.6 0 Calma 4 Noroeste 1.2 -- -- 100
2020-03-15 23:00:00 0.7 0 Calma 4 Este 0.4 -- -- 100
2020-03-15 22:00:00 0.7 0 Calma 5 Noroeste 0.6 -- -- 99
2020-03-15 21:00:00 0.5 0 Calma 4 Sur 1.8 -- -- 99
2020-03-15 20:00:00 0.7 0 Calma 5 Sur 1.8 -- -- 97
2020-03-15 19:00:00 1.5 0 Calma 14 Noroeste 3.2 -- -- 95
2020-03-15 18:00:00 2.9 9 Norte 30 Norte 4 -- -- 93
2020-03-15 17:00:00 6.1 13 Norte 36 Norte 0.8 -- -- 90
2020-03-15 16:00:00 11.1 16 Norte 35 Norte 0 -- -- 71
2020-03-15 15:00:00 15.2 9 Norte 19 Norte 0 -- -- 47
2020-03-15 14:00:00 13.6 10 Norte 28 Nordeste 0 -- -- 56
2020-03-15 13:00:00 13.9 12 Norte 27 Norte 0 -- -- 58
2020-03-15 12:00:00 13.2 14 Norte 35 Nordeste 0 -- -- 60
2020-03-15 11:00:00 10.5 6 Nordeste 17 Norte 0 -- -- 61
2020-03-15 10:00:00 3.2 2 Sur 7 Sur 0 -- -- 84
2020-03-15 09:00:00 3.4 3 Sur 9 Sudoeste 0 -- -- 82
2020-03-15 08:00:00 3.5 0 Calma 6 Sudeste 0 -- -- 80
2020-03-15 07:00:00 4.1 3 Sur 8 Oeste 0 -- -- 73
2020-03-15 06:00:00 4.5 2 Norte 5 Sudoeste 0 -- -- 75
2020-03-15 05:00:00 4.6 0 Calma 7 Sudoeste 0 -- -- 79
2020-03-15 04:00:00 5 2 Sudoeste 7 Sur 0 -- -- 80
2020-03-15 03:00:00 6.6 3 Sur 9 Norte 0 -- -- 74
2020-03-15 02:00:00 5.1 4 Norte 13 Norte 0 -- -- 87
2020-03-15 01:00:00 3.1 3 Noroeste 8 Norte 0 -- -- 98
2020-03-15 00:00:00 3.8 2 Sudoeste 5 Sudeste 0 -- -- 96
2020-03-14 23:00:00 4.7 0 Calma 5 Sudoeste 0 -- -- 95
2020-03-14 22:00:00 5.5 2 Sur 6 Sur 0 -- -- 94
2020-03-14 21:00:00 6.7 2 Sur 5 Sur 0 -- -- 90
2020-03-14 20:00:00 8.6 0 Calma 7 Sur 0 -- -- 83
2020-03-14 19:00:00 11.2 4 Sur 17 Noroeste 0 -- -- 76
2020-03-14 18:00:00 13.1 7 Noroeste 20 Norte 0 -- -- 69
2020-03-14 17:00:00 15.1 10 Norte 29 Norte 0 -- -- 64
2020-03-14 16:00:00 16.6 13 Norte 23 Norte 0 -- -- 58
2020-03-14 15:00:00 16.6 11 Norte 24 Norte 0 -- -- 52
2020-03-14 14:00:00 15.3 10 Norte 20 Norte 0 -- -- 53
2020-03-14 13:00:00 13.4 8 Norte 14 Norte 0 -- -- 58
2020-03-14 12:00:00 10.7 4 Nordeste 7 Nordeste 0 -- -- 63
2020-03-14 11:00:00 4.2 0 Calma 3 Norte 0 -- -- 100
2020-03-14 10:00:00 -0.8 0 Calma 3 Sur 0 -- -- 100
2020-03-14 09:00:00 -1.1 0 Calma 3 Sur 0 -- -- 100
2020-03-14 08:00:00 -1.2 0 Calma 3 Sur 0 -- -- 99
2020-03-14 07:00:00 -0.9 0 Calma 2 Sudoeste 0 -- -- 99
2020-03-14 06:00:00 -0.5 0 Calma 4 Sur 0 -- -- 98
2020-03-14 05:00:00 0.1 0 Calma 4 Sur 0 -- -- 97
2020-03-14 04:00:00 0.7 0 Calma 3 Sudoeste 0 -- -- 97
2020-03-14 03:00:00 1.3 3 Sur 3 Sur 0 -- -- 95
2020-03-14 02:00:00 2.3 2 Sur 3 Sudoeste 0 -- -- 92
2020-03-14 01:00:00 4 0 Calma 10 Sudeste 0 -- -- 86
2020-03-14 00:00:00 6.3 4 Sur 14 Sur 0 -- -- 85
2020-03-13 23:00:00 7.3 5 Sur 16 Sur 0 -- -- 86
2020-03-13 22:00:00 7.3 3 Sur 6 Sur 0 -- -- 89
2020-03-13 21:00:00 6.8 2 Norte 5 Sudoeste 0 -- -- 94
2020-03-13 20:00:00 6.3 3 Sur 8 Sur 0 -- -- 94
2020-03-13 19:00:00 7.6 2 Sur 4 Sudoeste 0 -- -- 87
2020-03-13 18:00:00 9.7 2 Oeste 18 Noroeste 0 -- -- 80
2020-03-13 17:00:00 9.9 10 Norte 31 Norte 0 -- -- 82
2020-03-13 16:00:00 11.8 11 Norte 21 Norte 0 -- -- 75
2020-03-13 15:00:00 10 8 Norte 18 Norte 0 -- -- 80
2020-03-13 14:00:00 9.9 10 Norte 19 Noroeste 0 -- -- 82
2020-03-13 13:00:00 9.5 9 Norte 18 Norte 0 -- -- 82
2020-03-13 12:00:00 9 6 Norte 12 Norte 0 -- -- 82
2020-03-13 11:00:00 8.1 4 Norte 13 Norte 0 -- -- 87
2020-03-13 10:00:00 7.1 3 Norte 11 Noroeste 0 -- -- 91
2020-03-13 09:00:00 6.4 4 Norte 9 Noroeste 0 -- -- 95
2020-03-13 08:00:00 6 0 Calma 6 Norte 0 -- -- 95
2020-03-13 07:00:00 6 0 Calma 8 Nordeste 0 -- -- 95
2020-03-13 06:00:00 6.1 2 Norte 11 Noroeste 0 -- -- 94
2020-03-13 05:00:00 6 4 Noroeste 12 Norte 0 -- -- 94
2020-03-13 04:00:00 6.2 6 Noroeste 13 Noroeste 0 -- -- 94
2020-03-13 03:00:00 6.3 5 Noroeste 13 Norte 0 -- -- 93
2020-03-13 02:00:00 6.5 5 Noroeste 12 Norte 0 -- -- 94
2020-03-13 01:00:00 6.8 5 Norte 11 Noroeste 0 -- -- 94
2020-03-13 00:00:00 6.9 4 Noroeste 11 Noroeste 0 -- -- 93
2020-03-12 23:00:00 7.1 4 Norte 14 Norte 0 -- -- 93
2020-03-12 22:00:00 7.3 5 Norte 13 Norte 0 -- -- 93
2020-03-12 21:00:00 7.8 5 Norte 15 Noroeste 0 -- -- 92
2020-03-12 20:00:00 8.6 5 Norte 11 Norte 0 -- -- 90
2020-03-12 19:00:00 9.2 3 Norte 11 Nordeste 0 -- -- 88
2020-03-12 18:00:00 9.6 3 Norte 13 Noroeste 0 -- -- 88
2020-03-12 17:00:00 9.7 3 Norte 13 Noroeste 0 -- -- 89
2020-03-12 16:00:00 9.7 4 Norte 17 Noroeste 0 -- -- 88
2020-03-12 15:00:00 10.1 10 Nordeste 24 Nordeste 0 -- -- 86
2020-03-12 14:00:00 11.5 5 Norte 12 Noroeste 0 -- -- 87
2020-03-12 13:00:00 11.2 5 Norte 12 Noroeste 0 -- -- 88
2020-03-12 12:00:00 10.5 5 Norte 12 Norte 0 -- -- 92
2020-03-12 11:00:00 10 5 Norte 13 Noroeste 0 -- -- 94
2020-03-12 10:00:00 9.9 5 Noroeste 12 Noroeste 0 -- -- 95
2020-03-12 09:00:00 9.9 2 Norte 5 Noroeste 0 -- -- 98
2020-03-12 08:00:00 9.9 0 Calma 3 Norte 0 -- -- 98
2020-03-12 07:00:00 9.9 0 Calma 4 Noroeste 0 -- -- 98
2020-03-12 06:00:00 10 0 Calma 3 Nordeste 0 -- -- 97
2020-03-12 05:00:00 10.1 0 Calma 0 Calma 0 -- -- 97
2020-03-12 04:00:00 10.3 0 Calma 3 Nordeste 0 -- -- 97
2020-03-12 03:00:00 10.4 0 Calma 2 Oeste 0 -- -- 96
2020-03-12 02:00:00 10.4 0 Calma 11 Noroeste 0 -- -- 97
2020-03-12 01:00:00 10.6 2 Norte 12 Noroeste 0 -- -- 96
2020-03-12 00:00:00 10.9 4 Noroeste 10 Noroeste 0 -- -- 95
2020-03-11 23:00:00 11.4 3 Noroeste 8 Noroeste 0 -- -- 92
2020-03-11 22:00:00 11.5 0 Calma 7 Sudoeste 0 -- -- 91
2020-03-11 21:00:00 12 4 Noroeste 13 Noroeste 0 -- -- 88
2020-03-11 20:00:00 13.7 3 Noroeste 11 Noroeste 0 -- -- 82
2020-03-11 19:00:00 16 8 Noroeste 18 Norte 0 -- -- 73
2020-03-11 18:00:00 17.6 4 Noroeste 16 Norte 0 -- -- 66
2020-03-11 17:00:00 19.2 9 Norte 24 Nordeste 0 -- -- 59
2020-03-11 16:00:00 21 10 Norte 25 Noroeste 0 -- -- 57
2020-03-11 15:00:00 21.3 12 Norte 26 Norte 0 -- -- 52
2020-03-11 14:00:00 21.2 10 Norte 18 Norte 0 -- -- 49
2020-03-11 13:00:00 19.8 6 Norte 14 Norte 0 -- -- 48
2020-03-11 12:00:00 16.6 4 Sudeste 7 Sudeste 0 -- -- 51
2020-03-11 11:00:00 9.2 0 Calma 4 Sur 0 -- -- 90
2020-03-11 10:00:00 3.6 0 Calma 4 Sudeste 0 -- -- 100
2020-03-11 09:00:00 3.2 0 Calma 5 Sudeste 0 -- -- 99
2020-03-11 08:00:00 3.1 3 Sur 4 Sur 0 -- -- 99
2020-03-11 07:00:00 3.2 0 Calma 5 Sur 0 -- -- 98
2020-03-11 06:00:00 3.4 2 Sur 3 Sur 0 -- -- 98
2020-03-11 05:00:00 3.6 0 Calma 4 Sudoeste 0 -- -- 96
2020-03-11 04:00:00 4.1 2 Sur 5 Sur 0 -- -- 93
2020-03-11 03:00:00 4.3 3 Sur 6 Sudoeste 0 -- -- 92
2020-03-11 02:00:00 4.7 4 Sur 8 Sudeste 0 -- -- 93
2020-03-11 01:00:00 4.9 3 Sur 8 Sudoeste 0 -- -- 93
2020-03-11 00:00:00 5 2 Sur 4 Sur 0 -- -- 92
2020-03-10 23:00:00 6 0 Calma 5 Sudoeste 0 -- -- 89
2020-03-10 22:00:00 7 0 Calma 4 Sudeste 0 -- -- 86
2020-03-10 21:00:00 8.3 0 Calma 4 Sudoeste 0 -- -- 78
2020-03-10 20:00:00 10.6 2 Sur 12 Sur 0 -- -- 68
2020-03-10 19:00:00 12.6 5 Sur 9 Sur 0 -- -- 60
2020-03-10 18:00:00 15.2 4 Sur 9 Noroeste 0 -- -- 45
2020-03-10 17:00:00 21.6 8 Nordeste 19 Norte 0 -- -- 18
2020-03-10 16:00:00 22.9 6 Noroeste 19 Noroeste 0 -- -- 21
2020-03-10 15:00:00 22.7 8 Norte 24 Nordeste 0 -- -- 27
2020-03-10 14:00:00 22.6 8 Sudeste 32 Sudeste 0 -- -- 18
2020-03-10 13:00:00 20.6 4 Norte 13 Norte 0 -- -- 33
2020-03-10 12:00:00 16.7 3 Nordeste 7 Norte 0 -- -- 61
2020-03-10 11:00:00 12.5 0 Calma 5 Sudeste 0 -- -- 77
2020-03-10 10:00:00 8.8 0 Calma 9 Sudeste 0 -- -- 93
2020-03-10 09:00:00 7.1 3 Sudoeste 8 Sudoeste 0 -- -- 96
2020-03-10 08:00:00 5.9 5 Sur 9 Oeste 0 -- -- 96
2020-03-10 07:00:00 5.4 4 Sur 8 Sudoeste 0 -- -- 95
2020-03-10 06:00:00 5.2 4 Sur 7 Sudoeste 0 -- -- 96
2020-03-10 05:00:00 5 3 Sur 9 Sudoeste 0 -- -- 95
2020-03-10 04:00:00 5.2 2 Sur 5 Sudoeste 0 -- -- 93
2020-03-10 03:00:00 5.1 3 Sur 8 Sudoeste 0 -- -- 90
2020-03-10 02:00:00 4.8 3 Sur 6 Sur 0 -- -- 90
2020-03-10 01:00:00 4.8 3 Sur 6 Sudoeste 0 -- -- 89
2020-03-10 00:00:00 4.9 3 Sur 4 Sur 0 -- -- 88
2020-03-09 23:00:00 5.3 2 Sur 5 Sudoeste 0 -- -- 87
2020-03-09 22:00:00 6.1 3 Sur 5 Sudoeste 0 -- -- 84
2020-03-09 21:00:00 6.3 3 Sur 5 Sur 0 -- -- 85
2020-03-09 20:00:00 7.6 2 Sur 5 Sudoeste 0 -- -- 79
2020-03-09 19:00:00 9.8 0 Calma 5 Oeste 0 -- -- 69
2020-03-09 18:00:00 11.7 3 Noroeste 14 Norte 0 -- -- 52
2020-03-09 17:00:00 13.2 3 Noroeste 13 Noroeste 0 -- -- 52
2020-03-09 16:00:00 13.5 6 Norte 18 Norte 0 -- -- 49
2020-03-09 15:00:00 13.8 9 Norte 20 Norte 0 -- -- 48
2020-03-09 14:00:00 11.7 8 Norte 18 Norte 0 -- -- 58
2020-03-09 13:00:00 11.1 7 Norte 14 Norte 0 -- -- 57
2020-03-09 12:00:00 10.3 8 Norte 18 Norte 0 -- -- 60
2020-03-09 11:00:00 9.4 8 Norte 19 Noroeste 0 -- -- 66
2020-03-09 10:00:00 4.1 3 Sudeste 6 Sudeste 0 -- -- 92
2020-03-09 09:00:00 2.7 0 Calma 4 Sudoeste 0 -- -- 93
2020-03-09 08:00:00 3.1 0 Calma 5 Sur 0 -- -- 90
2020-03-09 07:00:00 2.9 3 Sur 6 Noroeste 0 -- -- 90
2020-03-09 06:00:00 4 2 Sudoeste 9 Sur 0 -- -- 83
2020-03-09 05:00:00 5.9 0 Calma 16 Nordeste 0 -- -- 79
2020-03-09 04:00:00 7.6 6 Norte 28 Este 0 -- -- 70
2020-03-09 03:00:00 8.8 14 Nordeste 28 Nordeste 0 -- -- 61
2020-03-09 02:00:00 8.7 12 Nordeste 23 Nordeste 0 -- -- 60
2020-03-09 01:00:00 8.2 3 Noroeste 24 Nordeste 0 -- -- 70
2020-03-09 00:00:00 9.3 12 Nordeste 30 Nordeste 0 -- -- 59
2020-03-08 23:00:00 9.6 10 Nordeste 26 Este 0 -- -- 60
2020-03-08 22:00:00 10 6 Nordeste 23 Nordeste 0 -- -- 63
2020-03-08 21:00:00 11.3 12 Nordeste 27 Norte 0 -- -- 58
2020-03-08 20:00:00 12 10 Este 26 Nordeste 0 -- -- 54
2020-03-08 19:00:00 12.8 6 Nordeste 19 Nordeste 0 -- -- 54
2020-03-08 18:00:00 13.6 9 Este 38 Este 0 -- -- 52
2020-03-08 17:00:00 14.3 4 Norte 19 Sudeste 0 -- -- 48
2020-03-08 16:00:00 15.4 6 Este 21 Nordeste 0 -- -- 45
2020-03-08 15:00:00 15.7 10 Nordeste 40 Nordeste 0 -- -- 46
2020-03-08 14:00:00 15.6 10 Nordeste 26 Nordeste 0 -- -- 47
2020-03-08 13:00:00 14.9 10 Nordeste 31 Nordeste 0 -- -- 55
2020-03-08 12:00:00 13.6 10 Nordeste 32 Este 0 -- -- 67
2020-03-08 11:00:00 11.1 4 Nordeste 11 Sudeste 0 -- -- 84
2020-03-08 10:00:00 8.8 4 Sur 10 Sudeste 0 -- -- 92
2020-03-08 09:00:00 7.2 2 Nordeste 9 Sudeste 0 -- -- 92
2020-03-08 08:00:00 5.7 4 Norte 9 Sur 0 -- -- 93
2020-03-08 07:00:00 5.5 4 Sur 15 Sudeste 0 -- -- 87
2020-03-08 06:00:00 4.3 3 Noroeste 9 Sudeste 0 -- -- 94
2020-03-08 05:00:00 3.5 3 Norte 8 Sudeste 0 -- -- 97
2020-03-08 04:00:00 1.9 4 Sur 9 Sudoeste 0 -- -- 100
2020-03-08 03:00:00 1 3 Sur 8 Oeste 0 -- -- 100
2020-03-08 02:00:00 1.2 0 Calma 7 Sudeste 0 -- -- 100
2020-03-08 01:00:00 1.4 3 Sur 5 Nordeste 0 -- -- 99
2020-03-08 00:00:00 2 3 Sur 6 Este 0 -- -- 98
2020-03-07 23:00:00 2.8 2 Sudoeste 6 Este 0 -- -- 97
2020-03-07 22:00:00 3.6 2 Sudeste 6 Oeste 0 -- -- 96
2020-03-07 21:00:00 4.6 3 Sur 4 Sudeste 0 -- -- 94
2020-03-07 20:00:00 6.2 2 Sudoeste 4 Sur 0 -- -- 90
2020-03-07 19:00:00 8.3 3 Sudoeste 7 Sudoeste 0 -- -- 84
2020-03-07 18:00:00 10.1 4 Sudoeste 7 Sudoeste 0 -- -- 77
2020-03-07 17:00:00 12.3 3 Noroeste 16 Noroeste 0 -- -- 67
2020-03-07 16:00:00 14.1 8 Norte 17 Norte 0 -- -- 62
2020-03-07 15:00:00 13.3 8 Norte 15 Noroeste 0 -- -- 59
2020-03-07 14:00:00 12.3 6 Norte 11 Norte 0 -- -- 60
2020-03-07 13:00:00 11.1 4 Noroeste 8 Norte 0 -- -- 63
2020-03-07 12:00:00 10.1 6 Norte 10 Norte 0 -- -- 62
2020-03-07 11:00:00 8.2 2 Nordeste 4 Nordeste 0 -- -- 84
2020-03-07 10:00:00 6.1 0 Calma 5 Oeste 0 -- -- 98
2020-03-07 09:00:00 5.2 0 Calma 4 Sudeste 0 -- -- 100
2020-03-07 08:00:00 5.3 0 Calma 5 Sudoeste 0.2 -- -- 100
2020-03-07 07:00:00 5.7 2 Sur 5 Sudeste 0 -- -- 100
2020-03-07 06:00:00 5.7 2 Sur 11 Noroeste 0.8 -- -- 100
2020-03-07 05:00:00 5.4 2 Noroeste 6 Oeste 0.4 -- -- 100
2020-03-07 04:00:00 5.2 0 Calma 4 Sudoeste 0 -- -- 100
2020-03-07 03:00:00 4.9 2 Este 8 Este 0.2 -- -- 100
2020-03-07 02:00:00 4.5 2 Oeste 6 Noroeste 0.2 -- -- 98
2020-03-07 01:00:00 4.4 2 Norte 5 Noroeste 0 -- -- 96
2020-03-07 00:00:00 4.5 2 Sudeste 11 Norte 0 -- -- 94
2020-03-06 23:00:00 5 4 Norte 11 Noroeste 0 -- -- 87
2020-03-06 22:00:00 5 6 Norte 9 Norte 0 -- -- 82
2020-03-06 21:00:00 4.8 5 Norte 9 Norte 0 -- -- 82
2020-03-06 20:00:00 4.5 4 Norte 10 Norte 0 -- -- 85
2020-03-06 19:00:00 5.6 6 Norte 22 Nordeste 0 -- -- 76
2020-03-06 18:00:00 5.3 5 Norte 20 Nordeste 0.4 -- -- 87
2020-03-06 17:00:00 6.1 7 Norte 23 Nordeste 0 -- -- 78
2020-03-06 16:00:00 6.1 8 Norte 17 Nordeste 0 -- -- 76
2020-03-06 15:00:00 4.9 8 Norte 22 Nordeste 0.2 -- -- 87
2020-03-06 14:00:00 4.4 7 Norte 18 Norte 0.6 -- -- 88
2020-03-06 13:00:00 3.9 6 Norte 36 Este 1 -- -- 91
2020-03-06 12:00:00 4.5 8 Este 22 Este 1 -- -- 79
2020-03-06 11:00:00 3.5 9 Norte 25 Norte 0.8 -- -- 82
2020-03-06 10:00:00 2.7 7 Norte 22 Nordeste 1.6 -- -- 92
2020-03-06 09:00:00 2 9 Norte 40 Nordeste 2.8 -- -- 95
2020-03-06 08:00:00 4 19 Nordeste 50 Este 0.8 -- -- 78
2020-03-06 07:00:00 4.4 15 Nordeste 52 Este 0 -- -- 80
2020-03-06 06:00:00 4.6 13 Norte 45 Nordeste 0.2 -- -- 74
2020-03-06 05:00:00 4.1 15 Nordeste 48 Este 2 -- -- 83
2020-03-06 04:00:00 5.3 13 Nordeste 53 Nordeste 0.4 -- -- 74
2020-03-06 03:00:00 5.6 24 Nordeste 49 Nordeste 1.6 -- -- 72
2020-03-06 02:00:00 5.1 9 Norte 22 Este 0.8 -- -- 88
2020-03-06 01:00:00 6.1 8 Nordeste 36 Nordeste 1.2 -- -- 83
2020-03-06 00:00:00 6 12 Este 28 Sudeste 0.6 -- -- 81
2020-03-05 23:00:00 5 3 Sur 10 Nordeste 0.2 -- -- 94
2020-03-05 22:00:00 5.1 2 Norte 26 Este 0.4 -- -- 92
2020-03-05 21:00:00 6.5 11 Nordeste 24 Este 0.4 -- -- 76
2020-03-05 20:00:00 7.8 6 Sudeste 33 Nordeste 0 -- -- 68
2020-03-05 19:00:00 7.9 8 Sudeste 31 Nordeste 0 -- -- 62
2020-03-05 18:00:00 7.7 9 Nordeste 19 Nordeste 0.2 -- -- 71
2020-03-05 17:00:00 8.5 4 Norte 27 Nordeste 0.2 -- -- 82
2020-03-05 16:00:00 8.2 8 Norte 31 Este 0 -- -- 83
2020-03-05 15:00:00 9.3 12 Este 26 Sudeste 0.4 -- -- 66
2020-03-05 14:00:00 7.8 8 Norte 27 Nordeste 1 -- -- 87
2020-03-05 13:00:00 8.6 8 Norte 37 Sudeste 0.8 -- -- 82
2020-03-05 12:00:00 9 12 Nordeste 24 Nordeste 0.2 -- -- 71
2020-03-05 11:00:00 9.2 4 Este 30 Nordeste 0 -- -- 70
2020-03-05 10:00:00 9 13 Este 57 Este 0 -- -- 62
2020-03-05 09:00:00 8.5 9 Norte 39 Este 0.4 -- -- 75
2020-03-05 08:00:00 8.4 14 Este 31 Este 1.4 -- -- 74
2020-03-05 07:00:00 10.1 10 Nordeste 45 Este 2.4 -- -- 75
2020-03-05 06:00:00 10.3 3 Noroeste 7 Noroeste 3.4 -- -- 97
2020-03-05 05:00:00 11.3 3 Norte 32 Sudeste 1.6 -- -- 90
2020-03-05 04:00:00 13.3 7 Sur 47 Sudeste 0.4 -- -- 75
2020-03-05 03:00:00 15.3 27 Sudeste 57 Sudeste 0 -- -- 60
2020-03-05 02:00:00 15.3 26 Sudeste 56 Sudeste 0 -- -- 60
2020-03-05 01:00:00 15.4 17 Sudeste 42 Este 0 -- -- 60
2020-03-05 00:00:00 15.5 13 Sudeste 38 Sudeste 0 -- -- 62
2020-03-04 23:00:00 14.9 11 Sur 30 Sudeste 0 -- -- 64
2020-03-04 22:00:00 14.4 3 Sudoeste 17 Sur 0 -- -- 65
2020-03-04 21:00:00 15 6 Sudoeste 30 Sudoeste 0 -- -- 64
2020-03-04 20:00:00 15 6 Sur 18 Sudoeste 0 -- -- 63
2020-03-04 19:00:00 15.5 8 Sur 21 Este 0 -- -- 57
2020-03-04 18:00:00 15.8 16 Sudeste 35 Sudeste 0 -- -- 52
2020-03-04 17:00:00 16.2 5 Sur 30 Sudeste 0 -- -- 54
2020-03-04 16:00:00 17.1 9 Sur 20 Sur 0 -- -- 56
2020-03-04 15:00:00 18.2 10 Sur 27 Sur 0 -- -- 56
2020-03-04 14:00:00 17.8 7 Sudeste 31 Sudeste 0 -- -- 53
2020-03-04 13:00:00 17.8 11 Sur 28 Sudeste 0 -- -- 54
2020-03-04 12:00:00 16.6 7 Norte 22 Nordeste 0 -- -- 58
2020-03-04 11:00:00 15 7 Este 25 Este 0 -- -- 60
2020-03-04 10:00:00 13.5 5 Sudeste 20 Sudeste 0 -- -- 68
2020-03-04 09:00:00 13.1 11 Este 24 Sudeste 0 -- -- 65
2020-03-04 08:00:00 9.9 3 Noroeste 15 Nordeste 0 -- -- 88
2020-03-04 07:00:00 10.3 2 Sudoeste 9 Sudeste 0 -- -- 87
2020-03-04 06:00:00 11.5 3 Sudoeste 18 Sudeste 0 -- -- 81
2020-03-04 05:00:00 11.6 4 Oeste 9 Sudoeste 0 -- -- 87
2020-03-04 04:00:00 12.9 3 Sur 27 Nordeste 0 -- -- 82
2020-03-04 03:00:00 14.5 8 Norte 30 Nordeste 0 -- -- 71
2020-03-04 02:00:00 14.3 11 Nordeste 31 Nordeste 0 -- -- 76
2020-03-04 01:00:00 9.7 5 Sudoeste 14 Sudeste 0.2 -- -- 99
2020-03-04 00:00:00 8.5 6 Sudoeste 12 Sudeste 0 -- -- 99
2020-03-03 23:00:00 8.1 5 Nordeste 10 Noroeste 0.8 -- -- 97
2020-03-03 22:00:00 8.4 0 Calma 10 Sudoeste 0.6 -- -- 94
2020-03-03 21:00:00 9.8 5 Sur 13 Nordeste 0.2 -- -- 81
2020-03-03 20:00:00 12.9 6 Este 29 Nordeste 0 -- -- 47
2020-03-03 19:00:00 13.6 14 Nordeste 28 Nordeste 0 -- -- 45
2020-03-03 18:00:00 13.9 11 Nordeste 28 Este 0 -- -- 50
2020-03-03 17:00:00 14.2 16 Nordeste 34 Nordeste 0 -- -- 50
2020-03-03 16:00:00 14.4 13 Nordeste 44 Nordeste 0 -- -- 52
2020-03-03 15:00:00 14.4 17 Este 49 Este 0 -- -- 53
2020-03-03 14:00:00 15.1 16 Nordeste 51 Este 0 -- -- 53
2020-03-03 13:00:00 15.3 14 Este 62 Este 0 -- -- 53
2020-03-03 12:00:00 15.3 22 Nordeste 57 Nordeste 0 -- -- 56
2020-03-03 11:00:00 14.9 18 Nordeste 54 Sudeste 0 -- -- 62
2020-03-03 10:00:00 14.3 14 Este 60 Este 0 -- -- 66
2020-03-03 09:00:00 13.6 15 Nordeste 60 Nordeste 0.4 -- -- 68
2020-03-03 08:00:00 11.4 11 Nordeste 31 Este 1 -- -- 77
2020-03-03 07:00:00 12.2 21 Este 60 Este 0.2 -- -- 66
2020-03-03 06:00:00 8.8 9 Sudeste 29 Este 0.4 -- -- 83
2020-03-03 05:00:00 6.1 6 Sur 13 Oeste 2.4 -- -- 96
2020-03-03 04:00:00 5.7 4 Oeste 9 Este 1.6 -- -- 96
2020-03-03 03:00:00 5.5 3 Norte 19 Sudoeste 0.4 -- -- 91
2020-03-03 02:00:00 5.9 5 Sudeste 15 Sudeste 0 -- -- 78
2020-03-03 01:00:00 7.3 6 Este 20 Nordeste 0 -- -- 65
2020-03-03 00:00:00 7.3 11 Norte 34 Nordeste 0 -- -- 66
2020-03-02 23:00:00 6.4 3 Oeste 23 Nordeste 0 -- -- 75
2020-03-02 22:00:00 6.6 8 Norte 37 Nordeste 0 -- -- 67
2020-03-02 21:00:00 6.1 7 Nordeste 26 Nordeste 0 -- -- 68
2020-03-02 20:00:00 5.3 8 Norte 31 Nordeste 0 -- -- 71
2020-03-02 19:00:00 5.6 12 Nordeste 26 Este 0 -- -- 66
2020-03-02 18:00:00 4.6 3 Sur 25 Nordeste 0.2 -- -- 86
2020-03-02 17:00:00 4.9 13 Nordeste 30 Este 0.2 -- -- 81
2020-03-02 16:00:00 5.3 6 Nordeste 20 Este 0 -- -- 75
2020-03-02 15:00:00 4.2 18 Nordeste 38 Nordeste 1.2 -- -- 75
2020-03-02 14:00:00 5.5 13 Nordeste 52 Nordeste 0 -- -- 65
2020-03-02 13:00:00 2.9 8 Norte 36 Nordeste 1 -- -- 92
2020-03-02 12:00:00 5.1 18 Nordeste 45 Nordeste 0.4 -- -- 68
2020-03-02 11:00:00 3.2 5 Nordeste 20 Nordeste 1.2 -- -- 91
2020-03-02 10:00:00 4.9 6 Sudeste 32 Nordeste 0 -- -- 72
2020-03-02 09:00:00 4.1 6 Norte 33 Nordeste 0.4 -- -- 87
2020-03-02 08:00:00 3.7 5 Norte 33 Nordeste 1.4 -- -- 91
2020-03-02 07:00:00 5.7 16 Nordeste 35 Nordeste 0.8 -- -- 73
2020-03-02 06:00:00 5.5 10 Norte 46 Nordeste 1.8 -- -- 83
2020-03-02 05:00:00 6.8 16 Nordeste 53 Este 1.4 -- -- 76
2020-03-02 04:00:00 8.2 18 Nordeste 66 Nordeste 2.8 -- -- 76
2020-03-02 03:00:00 8.8 13 Norte 42 Norte 5.2 -- -- 85
2020-03-02 02:00:00 12.2 15 Nordeste 39 Este 2 -- -- 77
2020-03-02 01:00:00 8.6 8 Sudeste 23 Nordeste 2.8 -- -- 94
2020-03-02 00:00:00 7.8 4 Norte 22 Sudeste 3.6 -- -- 92